.
WxDataArchive / Data Records for 2006-10-17
2006-10-16 October 2006 2006-10-18

Data Records for Tuesday, 17 October 2006

Time	Temp	Chill	HIndex	Humid	Dewpt	 Wind 	HiWind	WindDir	Rain 	Barom 
-----	----	-----	------	-----	-----	------	------	-------	-----	----- 
00:00	47.7	47.7	47.7	95	46.3	2	7	90	0.01	29.741 
00:05	47.9	47.9	47.9	96	46.8	3	12	90	0.03	29.741 
00:10	47.9	47.9	47.9	96	46.8	2	9	112	0.01	29.741 
00:15	48.0	48.0	48.0	96	46.9	3	7	112	0.02	29.723 
00:20	48.0	48.0	48.0	96	46.9	3	10	112	0.02	29.723 
00:25	48.2	48.2	48.2	96	47.1	3	10	90	0.02	29.723 
00:30	48.2	48.2	48.2	96	47.1	3	9	112	0.01	29.708 
00:35	48.2	48.2	48.2	96	47.1	3	6	90	0.01	29.708 
00:40	48.3	48.3	48.3	96	47.2	3	7	112	0.01	29.708 
00:45	48.3	48.3	48.3	96	47.2	3	6	112	0.01	29.685 
00:50	48.5	47.1	48.5	96	47.4	4	10	112	0.00	29.685 
00:55	48.6	47.3	48.6	96	47.5	4	10	90	0.02	29.685 
01:00	48.6	48.6	48.6	96	47.5	3	11	90	0.01	29.665 
01:05	48.8	48.8	48.8	96	47.7	3	10	90	0.01	29.665 
01:10	48.9	48.9	48.9	96	47.8	3	7	112	0.02	29.665 
01:15	49.1	49.1	49.1	96	48.0	3	9	90	0.01	29.647 
01:20	49.2	47.9	49.2	96	48.1	4	8	112	0.05	29.647 
01:25	49.4	48.2	49.4	96	48.3	4	13	90	0.03	29.647 
01:30	49.4	48.2	49.4	96	48.3	4	7	90	0.01	29.628 
01:35	49.5	49.5	49.5	96	48.4	3	12	90	0.02	29.628 
01:40	49.6	49.6	49.6	96	48.5	3	11	90	0.02	29.628 
01:45	49.6	48.4	49.6	96	48.5	4	11	90	0.01	29.614 
01:50	49.6	48.4	49.6	96	48.5	4	9	90	0.02	29.614 
01:55	49.6	49.6	49.6	96	48.5	3	9	90	0.02	29.614 
02:00	49.8	49.8	49.8	96	48.7	3	12	90	0.02	29.613 
02:05	49.8	49.8	49.8	96	48.7	3	10	112	0.02	29.613 
02:10	49.9	49.9	49.9	96	48.8	3	6	90	0.02	29.613 
02:15	49.9	48.8	49.9	96	48.8	4	9	90	0.03	29.605 
02:20	49.9	49.9	49.9	96	48.8	3	7	90	0.01	29.605 
02:25	49.9	49.9	49.9	96	48.8	2	4	90	0.02	29.605 
02:30	50.1	50.1	50.1	96	49.0	2	9	90	0.01	29.605 
02:35	50.1	50.1	50.1	96	49.0	2	5	112	0.02	29.605 
02:40	50.1	50.1	50.1	96	49.0	2	4	112	0.03	29.605 
02:45	49.9	49.9	49.9	96	48.8	3	7	90	0.02	29.592 
02:50	49.9	49.9	49.9	96	48.8	2	4	90	0.02	29.592 
02:55	49.9	49.9	49.9	96	48.8	3	9	90	0.01	29.592 
03:00	49.9	49.9	49.9	96	48.8	2	7	90	0.01	29.585 
03:05	49.9	49.9	49.9	96	48.8	2	5	112	0.00	29.585 
03:10	49.9	49.9	49.9	96	48.8	1	3	112	0.01	29.585 
03:15	50.1	50.1	50.1	97	49.3	2	5	112	0.00	29.575 
03:20	50.1	50.1	50.1	97	49.3	2	3	90	0.00	29.575 
03:25	50.1	50.1	50.1	97	49.3	1	4	90	0.00	29.575 
03:30	50.2	50.2	50.2	97	49.4	1	2	112	0.01	29.570 
03:35	50.2	50.2	50.2	97	49.4	1	3	112	0.01	29.570 
03:40	50.4	50.4	50.4	97	49.6	2	6	90	0.00	29.570 
03:45	50.4	50.4	50.4	97	49.6	1	3	90	0.01	29.556 
03:50	50.5	50.5	50.5	97	49.7	1	3	112	0.04	29.556 
03:55	50.5	50.5	50.5	97	49.7	1	3	135	0.01	29.556 
04:00	50.7	50.7	50.7	97	49.9	1	3	90	0.01	29.543 
04:05	50.7	50.7	50.7	97	49.9	2	4	112	0.01	29.543 
04:10	50.8	50.8	50.8	97	50.0	1	3	112	0.02	29.543 
04:15	50.8	50.8	50.8	97	50.0	1	4	135	0.02	29.535 
04:20	51.0	51.0	51.0	97	50.2	1	4	90	0.02	29.535 
04:25	51.0	51.0	51.0	97	50.2	1	3	90	0.02	29.535 
04:30	51.1	51.1	51.1	97	50.3	2	7	90	0.02	29.521 
04:35	51.1	51.1	51.1	97	50.3	3	7	90	0.02	29.521 
04:40	51.1	51.1	51.1	97	50.3	2	7	90	0.02	29.521 
04:45	51.1	51.1	51.1	97	50.3	2	5	90	0.01	29.518 
04:50	51.3	51.3	51.3	97	50.5	3	9	90	0.02	29.518 
04:55	51.3	51.3	51.3	97	50.5	3	7	90	0.02	29.518 
05:00	51.3	51.3	51.3	97	50.5	3	5	90	0.01	29.508 
05:05	51.3	51.3	51.3	97	50.5	3	6	90	0.02	29.508 
05:10	51.3	51.3	51.3	97	50.5	2	6	112	0.02	29.508 
05:15	51.1	51.1	51.1	97	50.3	3	7	90	0.01	29.502 
05:20	51.1	51.1	51.1	97	50.3	2	7	90	0.02	29.502 
05:25	51.1	51.1	51.1	97	50.3	2	5	112	0.02	29.502 
05:30	51.1	51.1	51.1	97	50.3	1	4	112	0.01	29.493 
05:35	51.1	51.1	51.1	97	50.3	3	7	90	0.02	29.493 
05:40	51.1	51.1	51.1	97	50.3	2	7	90	0.02	29.493 
05:45	51.1	51.1	51.1	97	50.3	2	5	90	0.02	29.489 
05:50	51.1	51.1	51.1	97	50.3	3	7	90	0.01	29.489 
05:55	51.3	51.3	51.3	97	50.5	3	9	90	0.01	29.489 
06:00	51.3	51.3	51.3	97	50.5	3	5	112	0.01	29.478 
06:05	51.3	51.3	51.3	97	50.5	3	9	90	0.00	29.478 
06:10	51.3	51.3	51.3	97	50.5	2	4	112	0.02	29.478 
06:15	51.3	51.3	51.3	97	50.5	2	4	112	0.01	29.477 
06:20	51.3	51.3	51.3	97	50.5	3	5	112	0.00	29.477 
06:25	51.3	51.3	51.3	97	50.5	2	9	112	0.02	29.477 
06:30	51.4	51.4	51.4	97	50.6	2	5	112	0.00	29.473 
06:35	51.4	51.4	51.4	97	50.6	2	5	112	0.01	29.473 
06:40	51.4	51.4	51.4	97	50.6	2	4	112	0.00	29.473 
06:45	51.4	51.4	51.4	97	50.6	2	4	112	0.00	29.465 
06:50	51.6	51.6	51.6	97	50.8	2	5	112	0.00	29.465 
06:55	51.6	51.6	51.6	97	50.8	2	5	90	0.01	29.465 
07:00	51.6	51.6	51.6	97	50.8	2	4	112	0.00	29.459 
07:05	51.6	51.6	51.6	97	50.8	2	4	90	0.01	29.459 
07:10	51.7	51.7	51.7	98	51.2	2	5	112	0.01	29.459 
07:15	51.7	51.7	51.7	98	51.2	3	5	112	0.00	29.446 
07:20	51.7	51.7	51.7	98	51.2	2	6	112	0.00	29.446 
07:25	51.9	51.9	51.9	98	51.4	2	6	90	0.00	29.446 
07:30	52.0	52.0	52.0	98	51.5	2	6	90	0.00	29.439 
07:35	52.0	52.0	52.0	98	51.5	1	3	68	0.01	29.439 
07:40	52.2	52.2	52.2	98	51.7	1	3	135	0.00	29.439 
07:45	52.2	52.2	52.2	98	51.7	1	4	112	0.00	29.432 
07:50	52.3	52.3	52.3	98	51.8	1	4	112	0.01	29.432 
07:55	52.5	52.5	52.5	98	52.0	1	3	90	0.00	29.432 
08:00	52.5	52.5	52.5	98	52.0	1	5	112	0.01	29.425 
08:05	52.5	52.5	52.5	98	52.0	1	2	112	0.00	29.425 
08:10	52.6	52.6	52.6	98	52.0	1	3	112	0.00	29.425 
08:15	52.8	52.8	52.8	98	52.2	1	3	90	0.01	29.426 
08:20	52.8	52.8	52.8	98	52.2	1	4	112	0.00	29.426 
08:25	52.9	52.9	52.9	98	52.3	1	3	112	0.01	29.426 
08:30	53.1	53.1	53.1	98	52.5	1	3	112	0.00	29.419 
08:35	53.2	53.2	53.2	98	52.6	1	4	135	0.00	29.419 
08:40	53.2	53.2	53.2	98	52.6	1	3	90	0.01	29.419 
08:45	53.5	53.5	53.5	98	52.9	1	3	112	0.00	29.425 
08:50	53.6	53.6	53.6	98	53.0	1	5	112	0.00	29.425 
08:55	53.8	53.8	53.8	98	53.2	2	4	112	0.00	29.425 
09:00	53.9	53.9	53.9	98	53.3	1	3	90	0.01	29.424 
09:05	54.1	54.1	54.1	98	53.5	1	5	90	0.00	29.424 
09:10	54.4	54.4	54.4	98	53.8	1	3	112	0.00	29.424 
09:15	54.7	54.7	54.7	98	54.1	1	4	90	0.01	29.416 
09:20	54.8	54.8	54.8	98	54.2	1	4	112	0.00	29.416 
09:25	55.1	55.1	55.1	98	54.5	2	5	90	0.00	29.416 
09:30	55.3	55.3	55.3	98	54.7	0	4	68	0.00	29.412 
09:35	55.4	55.4	55.4	98	54.8	1	3	112	0.01	29.412 
09:40	55.6	55.6	55.6	98	55.0	0	2	112	0.00	29.412 
09:45	55.7	55.7	55.7	98	55.1	0	2	68	0.00	29.409 
09:50	55.9	55.9	55.9	98	55.3	1	4	90	0.00	29.409 
09:55	56.2	56.2	56.2	98	55.6	1	3	112	0.00	29.409 
10:00	56.3	56.3	56.3	98	55.7	1	6	248	0.00	29.405 
10:05	56.6	56.6	56.6	98	56.0	1	3	90	0.00	29.405 
10:10	56.9	56.9	56.9	98	56.3	2	7	45	0.00	29.405 
10:15	57.0	57.0	57.0	98	56.4	0	3	315	0.01	29.400 
10:20	57.3	57.3	57.3	99	57.0	2	5	248	0.00	29.400 
10:25	57.6	57.6	57.6	99	57.3	2	5	270	0.00	29.400 
10:30	58.1	58.1	58.1	99	57.8	3	6	270	0.00	29.399 
10:35	58.4	58.4	58.4	99	58.1	2	6	248	0.00	29.399 
10:40	58.7	58.7	58.7	99	58.4	3	7	270	0.00	29.399 
10:45	58.9	58.9	58.9	99	58.6	2	6	248	0.00	29.398 
10:50	58.9	58.9	58.9	99	58.6	3	6	270	0.00	29.398 
10:55	58.9	58.9	58.9	99	58.6	4	9	270	0.01	29.398 
11:00	58.6	58.6	58.6	99	58.3	4	11	270	0.00	29.415 
11:05	58.0	58.0	58.0	98	57.4	4	6	270	0.00	29.415 
11:10	57.5	57.5	57.5	98	56.9	4	10	270	0.00	29.415 
11:15	57.2	57.2	57.2	98	56.6	4	10	248	0.00	29.428 
11:20	57.0	57.0	57.0	96	55.9	4	8	248	0.00	29.428 
11:25	57.0	57.0	57.0	95	55.6	3	8	270	0.00	29.428 
11:30	57.0	57.0	57.0	94	55.3	3	7	248	0.00	29.439 
11:35	56.9	56.9	56.9	93	54.9	4	12	270	0.00	29.439 
11:40	56.7	56.7	56.7	92	54.4	3	7	270	0.00	29.439 
11:45	56.5	56.5	56.5	92	54.2	3	6	270	0.00	29.444 
11:50	56.3	56.3	56.3	90	53.4	4	10	270	0.00	29.444 
11:55	56.2	56.2	56.2	90	53.3	4	7	270	0.00	29.444 
12:00	56.2	56.2	56.2	89	53.0	4	9	270	0.00	29.455 
12:05	56.0	56.0	56.0	90	53.1	3	10	270	0.00	29.455 
12:10	55.9	55.9	55.9	90	53.0	4	9	248	0.00	29.455 
12:15	55.7	55.7	55.7	91	53.1	3	6	248	0.00	29.458 
12:20	55.4	55.4	55.4	91	52.8	5	12	270	0.00	29.458 
12:25	55.4	55.4	55.4	91	52.8	4	10	270	0.00	29.458 
12:30	55.4	55.4	55.4	91	52.8	4	14	270	0.00	29.470 
12:35	55.7	55.7	55.7	90	52.8	4	7	270	0.00	29.470 
12:40	55.7	55.7	55.7	89	52.5	4	9	270	0.00	29.470 
12:45	55.7	55.7	55.7	89	52.5	4	9	270	0.00	29.473 
12:50	55.7	55.7	55.7	88	52.2	3	10	248	0.00	29.473 
12:55	55.7	55.7	55.7	87	51.9	5	11	270	0.00	29.473 
13:00	55.9	55.9	55.9	87	52.1	4	8	270	0.00	29.484 
13:05	55.7	55.7	55.7	86	51.6	5	12	270	0.00	29.484 
13:10	55.7	55.7	55.7	85	51.3	6	13	270	0.00	29.484 
13:15	55.9	55.9	55.9	85	51.5	4	10	270	0.00	29.486 
13:20	56.2	56.2	56.2	84	51.4	4	7	270	0.00	29.486 
13:25	56.3	56.3	56.3	84	51.5	3	10	248	0.00	29.486 
13:30	56.0	56.0	56.0	84	51.2	4	17	248	0.00	29.494 
13:35	55.7	55.7	55.7	84	50.9	4	10	270	0.00	29.494 
13:40	55.4	55.4	55.4	84	50.6	4	10	248	0.00	29.494 
13:45	55.1	55.1	55.1	84	50.4	6	20	270	0.00	29.502 
13:50	55.0	55.0	55.0	84	50.3	4	9	248	0.00	29.502 
13:55	54.8	54.8	54.8	84	50.1	5	11	270	0.00	29.502 
14:00	54.7	54.7	54.7	84	50.0	4	9	248	0.00	29.506 
14:05	54.5	54.5	54.5	84	49.8	5	12	270	0.00	29.506 
14:10	54.5	54.5	54.5	84	49.8	4	9	270	0.00	29.506 
14:15	54.5	54.5	54.5	85	50.1	4	7	270	0.00	29.518 
14:20	54.5	54.5	54.5	85	50.1	3	7	248	0.00	29.518 
14:25	54.4	54.4	54.4	85	50.0	3	6	248	0.00	29.518 
14:30	54.4	54.4	54.4	85	50.0	2	7	270	0.00	29.531 
14:35	54.2	54.2	54.2	84	49.5	4	9	270	0.00	29.531 
14:40	54.2	54.2	54.2	84	49.5	4	12	270	0.00	29.531 
14:45	54.1	54.1	54.1	84	49.4	5	15	270	0.00	29.539 
14:50	54.1	54.1	54.1	84	49.4	5	10	270	0.00	29.539 
14:55	53.9	53.9	53.9	84	49.2	5	11	270	0.00	29.539 
15:00	53.9	53.9	53.9	84	49.2	4	11	270	0.00	29.549 
15:05	54.1	54.1	54.1	83	49.1	5	15	270	0.00	29.549 
15:10	54.1	54.1	54.1	83	49.1	4	9	270	0.00	29.549 
15:15	54.1	54.1	54.1	83	49.1	3	7	270	0.00	29.551 
15:20	54.1	54.1	54.1	83	49.1	4	11	270	0.00	29.551 
15:25	54.2	54.2	54.2	82	48.8	3	6	248	0.00	29.551 
15:30	54.4	54.4	54.4	82	49.0	4	9	270	0.00	29.556 
15:35	54.7	54.7	54.7	81	49.0	4	8	270	0.00	29.556 
15:40	54.8	54.8	54.8	81	49.1	3	12	270	0.00	29.556 
15:45	55.0	55.0	55.0	81	49.3	3	7	248	0.00	29.561 
15:50	54.8	54.8	54.8	81	49.1	2	5	270	0.00	29.561 
15:55	54.8	54.8	54.8	81	49.1	3	7	270	0.00	29.561 
16:00	54.8	54.8	54.8	81	49.1	3	5	270	0.00	29.567 
16:05	54.8	54.8	54.8	81	49.1	2	11	270	0.00	29.567 
16:10	54.5	54.5	54.5	81	48.8	4	7	270	0.00	29.567 
16:15	54.5	54.5	54.5	82	49.1	2	5	248	0.00	29.581 
16:20	54.4	54.4	54.4	82	49.0	4	6	270	0.00	29.581 
16:25	54.4	54.4	54.4	82	49.0	3	9	270	0.00	29.581 
16:30	54.4	54.4	54.4	82	49.0	3	12	270	0.00	29.593 
16:35	54.4	54.4	54.4	82	49.0	3	6	270	0.00	29.593 
16:40	54.4	54.4	54.4	82	49.0	3	6	270	0.00	29.593 
16:45	54.2	54.2	54.2	82	48.8	3	7	270	0.00	29.605 
16:50	54.2	54.2	54.2	83	49.1	2	4	270	0.00	29.605 
16:55	54.2	54.2	54.2	83	49.1	2	5	270	0.00	29.605 
17:00	54.2	54.2	54.2	83	49.1	2	4	270	0.00	29.613 
17:05	54.4	54.4	54.4	83	49.3	1	4	270	0.00	29.613 
17:10	54.4	54.4	54.4	83	49.3	2	4	270	0.00	29.613 
17:15	54.4	54.4	54.4	82	49.0	2	4	248	0.00	29.616 
17:20	54.5	54.5	54.5	82	49.1	2	6	270	0.00	29.616 
17:25	54.5	54.5	54.5	82	49.1	2	6	248	0.00	29.616 
17:30	54.5	54.5	54.5	82	49.1	2	5	248	0.00	29.626 
17:35	54.5	54.5	54.5	82	49.1	1	4	248	0.00	29.626 
17:40	54.5	54.5	54.5	82	49.1	1	4	270	0.00	29.626 
17:45	54.5	54.5	54.5	82	49.1	2	5	270	0.00	29.635 
17:50	54.4	54.4	54.4	82	49.0	1	5	270	0.00	29.635 
17:55	54.4	54.4	54.4	83	49.3	1	3	248	0.00	29.635 
18:00	54.4	54.4	54.4	83	49.3	1	3	248	0.00	29.644 
18:05	54.4	54.4	54.4	82	49.0	2	5	248	0.00	29.644 
18:10	54.4	54.4	54.4	82	49.0	1	3	270	0.00	29.644 
18:15	54.4	54.4	54.4	83	49.3	1	4	248	0.00	29.645 
18:20	54.4	54.4	54.4	83	49.3	1	3	270	0.00	29.645 
18:25	54.4	54.4	54.4	83	49.3	1	3	248	0.00	29.645 
18:30	54.4	54.4	54.4	83	49.3	1	3	248	0.00	29.656 
18:35	54.2	54.2	54.2	83	49.1	1	4	248	0.00	29.656 
18:40	54.2	54.2	54.2	84	49.5	1	2	248	0.00	29.656 
18:45	54.2	54.2	54.2	84	49.5	0	2	248	0.00	29.659 
18:50	54.1	54.1	54.1	84	49.4	1	3	248	0.00	29.659 
18:55	54.1	54.1	54.1	84	49.4	1	3	248	0.00	29.659 
19:00	54.1	54.1	54.1	84	49.4	0	3	248	0.00	29.665 
19:05	54.1	54.1	54.1	85	49.7	0	2	248	0.00	29.665 
19:10	54.1	54.1	54.1	85	49.7	1	3	248	0.00	29.665 
19:15	53.9	53.9	53.9	85	49.5	1	3	248	0.00	29.667 
19:20	54.1	54.1	54.1	84	49.4	1	3	248	0.00	29.667 
19:25	53.9	53.9	53.9	84	49.2	1	4	225	0.00	29.667 
19:30	53.9	53.9	53.9	84	49.2	1	3	225	0.00	29.674 
19:35	53.9	53.9	53.9	84	49.2	2	4	248	0.00	29.674 
19:40	54.1	54.1	54.1	84	49.4	1	3	248	0.00	29.674 
19:45	54.1	54.1	54.1	84	49.4	1	4	248	0.00	29.677 
19:50	53.9	53.9	53.9	84	49.2	1	4	248	0.00	29.677 
19:55	53.9	53.9	53.9	84	49.2	1	5	248	0.00	29.677 
20:00	53.9	53.9	53.9	85	49.5	1	2	248	0.00	29.690 
20:05	53.9	53.9	53.9	85	49.5	1	5	248	0.00	29.690 
20:10	53.9	53.9	53.9	85	49.5	1	3	248	0.00	29.690 
20:15	53.9	53.9	53.9	85	49.5	2	5	248	0.00	29.696 
20:20	53.9	53.9	53.9	85	49.5	2	4	248	0.00	29.696 
20:25	53.9	53.9	53.9	85	49.5	1	3	248	0.00	29.696 
20:30	53.9	53.9	53.9	85	49.5	1	3	225	0.00	29.703 
20:35	54.1	54.1	54.1	84	49.4	1	3	248	0.00	29.703 
20:40	54.1	54.1	54.1	84	49.4	1	4	248	0.00	29.703 
20:45	54.1	54.1	54.1	84	49.4	1	3	248	0.00	29.706 
20:50	54.2	54.2	54.2	84	49.5	2	5	248	0.00	29.706 
20:55	54.2	54.2	54.2	84	49.5	1	4	248	0.00	29.706 
21:00	54.2	54.2	54.2	84	49.5	1	3	248	0.00	29.713 
21:05	54.1	54.1	54.1	84	49.4	0	2	248	0.00	29.713 
21:10	54.1	54.1	54.1	85	49.7	1	4	270	0.00	29.713 
21:15	54.1	54.1	54.1	85	49.7	1	3	248	0.00	29.718 
21:20	54.1	54.1	54.1	85	49.7	0	1	248	0.00	29.718 
21:25	53.9	53.9	53.9	85	49.5	0	2	248	0.00	29.718 
21:30	53.9	53.9	53.9	85	49.5	1	3	248	0.00	29.719 
21:35	53.9	53.9	53.9	85	49.5	1	2	248	0.00	29.719 
21:40	53.9	53.9	53.9	86	49.8	0	1	248	0.00	29.719 
21:45	53.9	53.9	53.9	86	49.8	0	3	248	0.00	29.720 
21:50	53.9	53.9	53.9	86	49.8	0	3	248	0.00	29.720 
21:55	53.8	53.8	53.8	86	49.7	0	2	248	0.00	29.720 
22:00	53.8	53.8	53.8	86	49.7	0	2	248	0.00	29.725 
22:05	53.9	53.9	53.9	86	49.8	1	3	248	0.00	29.725 
22:10	53.9	53.9	53.9	86	49.8	1	2	248	0.00	29.725 
22:15	53.9	53.9	53.9	86	49.8	1	3	248	0.00	29.727 
22:20	53.9	53.9	53.9	86	49.8	0	2	248	0.00	29.727 
22:25	53.9	53.9	53.9	85	49.5	1	4	248	0.00	29.727 
22:30	54.1	54.1	54.1	85	49.7	1	2	248	0.00	29.732 
22:35	54.1	54.1	54.1	85	49.7	0	3	248	0.00	29.732 
22:40	54.1	54.1	54.1	85	49.7	1	2	248	0.00	29.732 
22:45	54.1	54.1	54.1	85	49.7	1	2	248	0.00	29.738 
22:50	54.1	54.1	54.1	84	49.4	1	3	270	0.00	29.738 
22:55	54.1	54.1	54.1	84	49.4	1	2	248	0.00	29.738 
23:00	54.1	54.1	54.1	84	49.4	0	2	248	0.00	29.738 
23:05	54.1	54.1	54.1	84	49.4	0	2	248	0.00	29.738 
23:10	54.1	54.1	54.1	84	49.4	0	3	248	0.00	29.738 
23:15	54.1	54.1	54.1	84	49.4	1	3	248	0.00	29.747 
23:20	54.2	54.2	54.2	84	49.5	1	3	248	0.00	29.747 
23:25	54.2	54.2	54.2	84	49.5	0	1	248	0.00	29.747 
23:30	54.2	54.2	54.2	84	49.5	0	2	248	0.00	29.748 
23:35	54.2	54.2	54.2	84	49.5	0	1	248	0.00	29.748 
23:40	54.1	54.1	54.1	84	49.4	0	1	248	0.00	29.748 
23:45	54.1	54.1	54.1	84	49.4	0	1	248	0.00	29.751 
23:50	54.1	54.1	54.1	84	49.4	0	2	248	0.00	29.751 
23:55	54.1	54.1	54.1	84	49.4	0	2	248	0.00	29.751 

CoCoRaHS
IN-AL-39
A2 Web Hosting
Creative Commons License
GoDaddy
Look for:

loaded 2017-12-11 11:53:20 • last modified 2010-11-18 10:43:29
Privacy PolicyDisclaimer
• wx.awcolley.com is powered by PmWiki v.2002016 •
• all content (unless otherwise noted) © 2017 A W Colley